Time;durP1;ratioP1;P1;durP2;ratioP2;P2;SDS_P1;SDS_P2;PMS_P1;PMS_P2;Temp;Humidity;BMP_temperature;BMP_pressure;BME280_temperature;BME280_humidity;BME280_pressure;Samples;Min_cycle;Max_cycle;Signal;HPM_P1;HPM_P2
2023/02/12 00:00:51;;;;;;;11.13;10.10;;;;;17.50;102656.00;;;;2087556;28;20635;-51
2023/02/12 00:01:52;;;;;;;10.50;9.40;;;;;17.50;102652.00;;;;2087546;28;20581;-51
2023/02/12 00:02:52;;;;;;;10.80;9.70;;;;;17.50;102654.00;;;;2087344;28;20694;-50
2023/02/12 00:03:52;;;;;;;9.87;8.97;;;;;17.50;102649.00;;;;2087106;28;20946;-50
2023/02/12 00:04:53;;;;;;;11.77;10.40;;;;;17.50;102645.00;;;;2087547;28;20668;-51
2023/02/12 00:05:53;;;;;;;9.87;8.97;;;;;17.50;102647.00;;;;2087615;28;20695;-51
2023/02/12 00:06:53;;;;;;;11.20;10.10;;;;;17.50;102652.00;;;;2086990;28;20219;-51
2023/02/12 00:07:54;;;;;;;9.70;8.80;;;;;17.50;102651.00;;;;2086490;28;20257;-51
2023/02/12 00:08:55;;;;;;;11.10;10.00;;;;;17.50;102650.00;;;;2086220;28;20218;-51
2023/02/12 00:09:55;;;;;;;10.93;9.93;;;;;17.50;102645.00;;;;2087459;28;20279;-51
2023/02/12 00:10:56;;;;;;;10.37;9.47;;;;;17.50;102648.00;;;;2087367;28;20219;-51
2023/02/12 00:11:56;;;;;;;10.70;9.60;;;;;17.50;102650.00;;;;2087172;28;20324;-50
2023/02/12 00:12:56;;;;;;;11.17;10.17;;;;;17.50;102646.00;;;;2087110;28;20222;-51
2023/02/12 00:13:57;;;;;;;10.50;9.60;;;;;17.50;102638.00;;;;2087245;28;20215;-50
2023/02/12 00:14:57;;;;;;;11.30;10.20;;;;;17.50;102651.00;;;;2087541;28;20288;-51
2023/02/12 00:15:57;;;;;;;10.63;9.63;;;;;17.50;102645.00;;;;2087560;28;20212;-51
2023/02/12 00:16:58;;;;;;;10.63;9.63;;;;;17.50;102648.00;;;;2087437;28;20219;-50
2023/02/12 00:17:58;;;;;;;11.67;10.47;;;;;17.50;102641.00;;;;2086591;28;20295;-51
2023/02/12 00:18:58;;;;;;;10.83;9.77;;;;;17.50;102644.00;;;;2087151;28;20620;-51
2023/02/12 00:19:59;;;;;;;9.70;8.80;;;;;17.50;102646.00;;;;2086658;28;20685;-50
2023/02/12 00:20:59;;;;;;;9.47;8.60;;;;;17.50;102643.00;;;;2087554;28;20229;-51
2023/02/12 00:22:00;;;;;;;10.53;9.63;;;;;17.50;102645.00;;;;2087549;28;20595;-51
2023/02/12 00:23:00;;;;;;;10.13;9.00;;;;;17.50;102643.00;;;;2087525;28;20219;-51
2023/02/12 00:24:01;;;;;;;9.80;8.90;;;;;17.50;102643.00;;;;2087088;28;20246;-50
2023/02/12 00:25:01;;;;;;;11.17;10.07;;;;;17.50;102644.00;;;;2085465;28;20222;-55
2023/02/12 00:26:06;;;;;;;10.17;9.27;;;;;17.50;102641.00;;;;2086610;28;20563;-51
2023/02/12 00:27:06;;;;;;;10.50;9.50;;;;;17.50;102646.00;;;;2087225;28;20734;-50
2023/02/12 00:28:07;;;;;;;10.27;9.37;;;;;17.50;102649.00;;;;2086470;28;20271;-50
2023/02/12 00:29:08;;;;;;;9.93;9.03;;;;;17.50;102645.00;;;;2087437;28;20749;-50
2023/02/12 00:30:09;;;;;;;10.50;9.50;;;;;17.50;102647.00;;;;2086396;28;20715;-50
2023/02/12 00:31:12;;;;;;;10.67;9.67;;;;;17.50;102640.00;;;;2086796;28;20336;-50
2023/02/12 00:32:13;;;;;;;10.98;9.88;;;;;17.50;102648.00;;;;2087336;28;20229;-51
2023/02/12 00:33:13;;;;;;;9.93;9.03;;;;;17.50;102645.00;;;;2087473;28;20621;-50
2023/02/12 00:34:13;;;;;;;10.77;9.77;;;;;17.50;102640.00;;;;2085650;28;20465;-50
2023/02/12 00:35:14;;;;;;;11.33;10.27;;;;;17.50;102645.00;;;;2086255;28;20247;-50
2023/02/12 00:36:18;;;;;;;10.50;9.43;;;;;17.50;102643.00;;;;2086675;28;20303;-50
2023/02/12 00:37:18;;;;;;;11.20;9.90;;;;;17.50;102641.00;;;;2087322;28;20211;-50
2023/02/12 00:38:19;;;;;;;11.13;10.03;;;;;17.50;102643.00;;;;2086341;28;20577;-50
2023/02/12 00:39:19;;;;;;;11.17;10.17;;;;;17.50;102635.00;;;;2087278;28;20240;-50
2023/02/12 00:40:19;;;;;;;10.20;9.30;;;;;17.50;102634.00;;;;2087186;28;20227;-50
2023/02/12 00:41:20;;;;;;;11.07;9.97;;;;;17.50;102635.00;;;;2087101;28;20687;-50
2023/02/12 00:42:21;;;;;;;11.10;10.00;;;;;17.50;102666.00;;;;2086399;28;20707;-50
2023/02/12 00:43:21;;;;;;;10.57;9.57;;;;;17.50;102644.00;;;;2087470;28;20454;-50
2023/02/12 00:44:21;;;;;;;10.70;9.63;;;;;17.50;102643.00;;;;2087095;28;20717;-50
2023/02/12 00:45:22;;;;;;;10.63;9.63;;;;;17.50;102645.00;;;;2087162;28;20207;-50
2023/02/12 00:46:22;;;;;;;10.60;9.60;;;;;17.50;102634.00;;;;2087201;28;20222;-50
2023/02/12 00:47:22;;;;;;;10.03;9.13;;;;;17.50;102631.00;;;;2086955;28;20219;-50
2023/02/12 00:48:23;;;;;;;10.20;9.20;;;;;17.50;102634.00;;;;2086427;28;20273;-50
2023/02/12 00:49:23;;;;;;;10.00;9.00;;;;;17.50;102638.00;;;;2086761;28;20243;-50
2023/02/12 00:50:23;;;;;;;10.60;9.70;;;;;17.50;102645.00;;;;2087038;28;20626;-50
2023/02/12 00:51:24;;;;;;;10.10;9.10;;;;;17.50;102641.00;;;;2087254;28;20701;-50
2023/02/12 00:52:25;;;;;;;10.43;9.40;;;;;17.40;102641.00;;;;2086508;28;20730;-50
2023/02/12 00:53:25;;;;;;;10.30;9.30;;;;;17.50;102642.00;;;;2086667;28;21129;-50
2023/02/12 00:54:26;;;;;;;10.10;9.20;;;;;17.50;102651.00;;;;2087238;28;20459;-51
2023/02/12 00:55:26;;;;;;;9.80;8.90;;;;;17.50;102650.00;;;;2087321;28;20683;-50
2023/02/12 00:56:26;;;;;;;10.50;9.40;;;;;17.40;102642.00;;;;2086859;28;20220;-51
2023/02/12 00:57:27;;;;;;;11.77;10.67;;;;;17.40;102646.00;;;;2087289;28;20211;-51
2023/02/12 00:58:27;;;;;;;9.80;8.90;;;;;17.40;102650.00;;;;2086515;28;20311;-51
2023/02/12 00:59:27;;;;;;;10.40;9.33;;;;;17.40;102651.00;;;;2087242;28;20222;-51
2023/02/12 01:00:28;;;;;;;10.57;9.63;;;;;17.50;102639.00;;;;2087128;28;20211;-50
2023/02/12 01:01:28;;;;;;;9.70;8.80;;;;;17.50;102631.00;;;;2086863;28;20297;-51
2023/02/12 01:02:28;;;;;;;10.23;9.23;;;;;17.50;102641.00;;;;2087022;28;20225;-51
2023/02/12 01:03:29;;;;;;;9.90;8.90;;;;;17.40;102640.00;;;;2087046;28;20281;-50
2023/02/12 01:04:29;;;;;;;10.23;9.33;;;;;17.40;102640.00;;;;2087100;28;20290;-52
2023/02/12 01:05:30;;;;;;;9.80;8.90;;;;;17.40;102641.00;;;;2087201;28;20211;-51
2023/02/12 01:06:30;;;;;;;10.13;9.23;;;;;17.40;102642.00;;;;2087179;28;20215;-50
2023/02/12 01:07:30;;;;;;;10.43;9.43;;;;;17.40;102643.00;;;;2086269;28;20226;-50
2023/02/12 01:08:31;;;;;;;9.90;9.00;;;;;17.40;102644.00;;;;2085640;28;20215;-51
2023/02/12 01:09:31;;;;;;;10.17;9.10;;;;;17.40;102643.00;;;;2086897;28;20220;-51
2023/02/12 01:10:31;;;;;;;11.00;9.93;;;;;17.40;102646.00;;;;2077839;28;20347;-50
2023/02/12 01:11:32;;;;;;;9.93;9.03;;;;;17.40;102644.00;;;;2077633;28;20220;-50
2023/02/12 01:12:32;;;;;;;11.07;10.07;;;;;17.40;102644.00;;;;2087018;28;20210;-50
2023/02/12 01:13:33;;;;;;;10.40;9.33;;;;;17.40;102641.00;;;;2087237;28;20224;-50
2023/02/12 01:14:33;;;;;;;10.33;9.37;;;;;17.40;102643.00;;;;2086981;28;20238;-51
2023/02/12 01:15:33;;;;;;;10.40;9.27;;;;;17.40;102647.00;;;;2087154;28;20210;-50
2023/02/12 01:16:35;;;;;;;10.97;9.97;;;;;17.40;102642.00;;;;2086944;28;20263;-50
2023/02/12 01:17:36;;;;;;;10.38;9.40;;;;;17.40;102632.00;;;;2077603;28;20215;-50
2023/02/12 01:18:36;;;;;;;11.40;10.30;;;;;17.40;102639.00;;;;2077134;28;20323;-51
2023/02/12 01:19:36;;;;;;;10.67;9.57;;;;;17.40;102645.00;;;;2087047;28;20724;-50
2023/02/12 01:20:38;;;;;;;11.07;9.97;;;;;17.40;102628.00;;;;2086803;28;20262;-51
2023/02/12 01:21:38;;;;;;;10.70;9.70;;;;;17.40;102631.00;;;;2087101;28;20221;-51
2023/02/12 01:22:38;;;;;;;9.90;8.90;;;;;17.40;102630.00;;;;2086759;28;20235;-51
2023/02/12 01:23:39;;;;;;;9.83;8.93;;;;;17.40;102628.00;;;;2086781;28;20216;-51
2023/02/12 01:24:40;;;;;;;11.93;10.83;;;;;17.40;102634.00;;;;2086214;28;20213;-52
2023/02/12 01:25:40;;;;;;;11.33;10.23;;;;;17.40;102630.00;;;;2086128;28;20555;-51
2023/02/12 01:26:40;;;;;;;10.17;9.20;;;;;17.40;102630.00;;;;2085915;28;21611;-55
2023/02/12 01:27:41;;;;;;;10.63;9.60;;;;;17.40;102630.00;;;;2087029;28;20238;-52
2023/02/12 01:28:42;;;;;;;10.83;9.73;;;;;17.40;102628.00;;;;2085579;28;20218;-54
2023/02/12 01:29:43;;;;;;;10.27;9.27;;;;;17.40;102629.00;;;;2087072;28;20219;-51
2023/02/12 01:30:43;;;;;;;11.30;10.27;;;;;17.40;102635.00;;;;2086881;28;20581;-51
2023/02/12 01:31:44;;;;;;;10.33;9.33;;;;;17.40;102632.00;;;;2086888;28;20215;-51
2023/02/12 01:32:44;;;;;;;10.30;9.30;;;;;17.40;102631.00;;;;2086910;28;20229;-52
2023/02/12 01:33:48;;;;;;;10.20;9.20;;;;;17.50;102635.00;;;;2086668;28;20218;-51
2023/02/12 01:34:48;;;;;;;10.13;9.23;;;;;17.40;102630.00;;;;2086880;28;20698;-51
2023/02/12 01:35:49;;;;;;;10.40;9.50;;;;;17.40;102642.00;;;;2086713;28;20230;-51
2023/02/12 01:36:49;;;;;;;9.27;8.43;;;;;17.40;102639.00;;;;2086991;28;20238;-51
2023/02/12 01:37:49;;;;;;;10.50;9.23;;;;;17.40;102630.00;;;;2086947;28;20272;-51
2023/02/12 01:38:50;;;;;;;10.57;9.57;;;;;17.40;102630.00;;;;2086335;28;20239;-51
2023/02/12 01:39:50;;;;;;;11.23;10.13;;;;;17.50;102639.00;;;;2086522;28;20226;-51
2023/02/12 01:40:50;;;;;;;9.57;8.67;;;;;17.40;102627.00;;;;2086718;28;20238;-51
2023/02/12 01:41:51;;;;;;;10.70;9.60;;;;;17.40;102635.00;;;;2086621;28;20285;-51
2023/02/12 01:42:51;;;;;;;10.10;9.20;;;;;17.40;102634.00;;;;2086732;28;20218;-51
2023/02/12 01:44:21;;;;;;;10.03;9.13;;;;;17.40;102631.00;;;;2084961;28;20608;-51
2023/02/12 01:45:21;;;;;;;9.98;9.07;;;;;17.40;102627.00;;;;2083671;28;20222;-51
2023/02/12 01:46:21;;;;;;;11.10;10.10;;;;;17.40;102627.00;;;;2086448;28;20645;-51
2023/02/12 01:47:22;;;;;;;10.60;9.40;;;;;17.40;102638.00;;;;2086819;28;20203;-51
2023/02/12 01:48:23;;;;;;;10.90;9.80;;;;;17.40;102630.00;;;;2085656;28;20207;-51
2023/02/12 01:49:23;;;;;;;9.97;9.07;;;;;17.40;102639.00;;;;2086250;28;20206;-51
2023/02/12 01:50:24;;;;;;;10.30;9.37;;;;;17.40;102621.00;;;;2086129;28;20224;-51
2023/02/12 01:51:24;;;;;;;10.03;9.03;;;;;17.40;102626.00;;;;2086123;28;20532;-51
2023/02/12 01:52:29;;;;;;;10.20;9.20;;;;;17.40;102488.00;;;;2078059;28;20241;-50
2023/02/12 01:53:36;;;;;;;11.65;10.27;;;;;17.40;102603.00;;;;2085922;28;20208;-51
2023/02/12 01:54:36;;;;;;;10.35;9.35;;;;;17.40;102616.00;;;;2076453;28;20239;-51
2023/02/12 01:55:36;;;;;;;11.43;10.23;;;;;17.40;102625.00;;;;2060794;28;20630;-50
2023/02/12 01:56:37;;;;;;;9.93;8.93;;;;;17.40;102639.00;;;;2077232;28;20218;-50
2023/02/12 01:57:39;;;;;;;9.87;8.97;;;;;17.40;102627.00;;;;2087995;28;20285;-51
2023/02/12 01:58:40;;;;;;;9.93;9.02;;;;;17.40;102630.00;;;;2077147;28;20221;-51
2023/02/12 01:59:41;;;;;;;11.02;9.65;;;;;17.40;102616.00;;;;2079019;28;20756;-51
2023/02/12 02:00:41;;;;;;;9.60;8.70;;;;;17.40;102615.00;;;;2078328;28;20223;-51
2023/02/12 02:01:41;;;;;;;9.20;8.40;;;;;17.40;102625.00;;;;2078854;28;20220;-51
2023/02/12 02:02:43;;;;;;;9.70;8.80;;;;;17.40;102621.00;;;;2087518;28;20219;-51
2023/02/12 02:03:44;;;;;;;10.30;9.40;;;;;17.40;102627.00;;;;2087548;28;20223;-50
2023/02/12 02:04:47;;;;;;;9.65;8.75;;;;;17.40;102622.00;;;;2078677;28;20219;-50
2023/02/12 02:05:55;;;;;;;10.48;8.98;;;;;17.40;102622.00;;;;2062491;28;20208;-51
2023/02/12 02:06:57;;;;;;;9.98;9.07;;;;;17.40;102628.00;;;;2071748;28;20224;-51
2023/02/12 02:07:58;;;;;;;9.07;8.18;;;;;17.40;102625.00;;;;2078499;28;21020;-50
2023/02/12 02:08:58;;;;;;;9.90;9.00;;;;;17.40;102623.00;;;;2087600;28;20218;-50
2023/02/12 02:09:58;;;;;;;9.43;8.53;;;;;17.40;102609.00;;;;2078904;28;20329;-51
2023/02/12 02:10:59;;;;;;;9.57;8.67;;;;;17.00;102622.00;;;;2070324;28;20225;-51
2023/02/12 02:14:36;;;;;;;9.98;9.02;;;;;17.40;102616.00;;;;2087379;28;20705;-51
2023/02/12 02:15:37;;;;;;;10.90;9.90;;;;;17.40;102606.00;;;;2081851;28;20212;-51
2023/02/12 02:16:37;;;;;;;9.90;9.00;;;;;17.40;102614.00;;;;2079363;28;20219;-51
2023/02/12 02:17:54;;;;;;;9.80;8.83;;;;;17.40;102613.00;;;;2079136;28;20651;-52
2023/02/12 02:18:57;;;;;;;10.30;9.02;;;;;17.40;102616.00;;;;2086233;28;20226;-51
2023/02/12 02:20:11;;;;;;;10.60;9.70;;;;;17.40;102617.00;;;;2078993;28;21040;-51
2023/02/12 02:21:20;;;;;;;10.00;9.00;;;;;17.40;102606.00;;;;2074947;28;20219;-51
2023/02/12 02:22:36;;;;;;;9.35;8.50;;;;;17.40;102623.00;;;;2085788;28;20213;-51
2023/02/12 02:24:14;;;;;;;9.82;8.93;;;;;17.40;102608.00;;;;2088089;28;20203;-51
2023/02/12 02:25:26;;;;;;;10.05;9.15;;;;;17.40;102612.00;;;;2087958;28;20222;-51
2023/02/12 02:26:34;;;;;;;9.32;8.45;;;;;17.40;102620.00;;;;2081588;28;20236;-51
2023/02/12 02:27:51;;;;;;;9.60;8.52;;;;;17.40;102593.00;;;;2087009;28;20217;-51
2023/02/12 02:28:57;;;;;;;9.88;8.88;;;;;17.40;102605.00;;;;2072488;28;20215;-52
2023/02/12 02:30:27;;;;;;;10.77;9.75;;;;;17.40;102606.00;;;;2074358;28;20216;-51
2023/02/12 02:32:06;;;;;;;9.82;8.85;;;;;17.40;102611.00;;;;2079422;28;20684;-50
2023/02/12 02:33:10;;;;;;;10.77;8.60;;;;;17.40;102607.00;;;;2053752;28;20240;-51
2023/02/12 02:34:18;;;;;;;9.30;8.40;;;;;17.40;102601.00;;;;2079738;28;20325;-50
2023/02/12 02:35:40;;;;;;;10.23;9.25;;;;;17.40;102611.00;;;;2080190;28;20753;-50
2023/02/12 02:36:46;;;;;;;9.98;9.07;;;;;17.40;102604.00;;;;2081790;28;20308;-51
2023/02/12 02:37:54;;;;;;;10.27;9.27;;;;;17.40;102591.00;;;;2079677;28;20211;-50
2023/02/12 02:39:02;;;;;;;9.55;8.65;;;;;17.40;102590.00;;;;2079977;28;20219;-51
2023/02/12 02:40:15;;;;;;;9.27;8.43;;;;;17.40;102601.00;;;;2072731;28;20236;-50
2023/02/12 02:41:27;;;;;;;9.55;8.65;;;;;17.40;102598.00;;;;2065210;28;20216;-50
2023/02/12 02:42:40;;;;;;;10.75;9.75;;;;;17.40;102614.00;;;;2080458;28;20219;-52
2023/02/12 02:43:43;;;;;;;9.95;9.05;;;;;17.40;102599.00;;;;2077793;28;20215;-50
2023/02/12 02:44:52;;;;;;;10.25;9.25;;;;;17.40;102601.00;;;;2063289;28;20317;-51
2023/02/12 02:45:55;;;;;;;11.05;10.00;;;;;17.40;102573.00;;;;2079263;28;20214;-51
2023/02/12 02:46:57;;;;;;;10.57;9.60;;;;;17.40;102597.00;;;;2086217;28;20232;-51
2023/02/12 02:48:01;;;;;;;10.35;9.45;;;;;17.40;102599.00;;;;2078041;28;20214;-50
2023/02/12 02:49:04;;;;;;;9.98;9.07;;;;;17.40;102476.00;;;;2070870;28;20349;-51
2023/02/12 02:50:09;;;;;;;10.50;9.18;;;;;17.40;102611.00;;;;2062812;28;20308;-51
2023/02/12 02:51:33;;;;;;;9.65;8.65;;;;;17.40;102606.00;;;;2079029;28;20282;-51
2023/02/12 02:52:40;;;;;;;9.43;8.60;;;;;17.40;102611.00;;;;2085578;28;20559;-50
2023/02/12 02:53:43;;;;;;;9.07;8.27;;;;;17.40;102599.00;;;;2073123;28;20771;-51
2023/02/12 02:54:52;;;;;;;9.73;8.82;;;;;17.40;102603.00;;;;2071800;28;20217;-51
2023/02/12 02:55:53;;;;;;;9.85;8.90;;;;;17.40;102605.00;;;;2078948;28;20220;-51
2023/02/12 02:56:59;;;;;;;8.65;7.85;;;;;17.40;102599.00;;;;2071033;28;20216;-51
2023/02/12 02:58:03;;;;;;;10.10;9.20;;;;;17.40;102598.00;;;;2062174;28;20225;-51
2023/02/12 02:59:06;;;;;;;9.85;8.90;;;;;17.40;102596.00;;;;2063438;28;20308;-51
2023/02/12 03:00:12;;;;;;;9.02;8.25;;;;;17.40;102596.00;;;;2061366;28;20262;-51
2023/02/12 03:01:17;;;;;;;9.25;8.40;;;;;17.40;102601.00;;;;2072595;28;20270;-51
2023/02/12 03:02:27;;;;;;;9.82;8.93;;;;;17.40;102595.00;;;;2087392;28;20621;-51
2023/02/12 03:03:37;;;;;;;8.82;7.93;;;;;17.40;102596.00;;;;2087073;28;20591;-52
2023/02/12 03:04:42;;;;;;;10.25;9.35;;;;;17.40;102599.00;;;;2071875;28;20209;-51
2023/02/12 03:05:44;;;;;;;9.68;8.77;;;;;17.40;102597.00;;;;2054483;28;20864;-51
2023/02/12 03:06:53;;;;;;;9.52;8.63;;;;;17.40;102597.00;;;;2071195;28;20289;-50
2023/02/12 03:07:57;;;;;;;9.43;8.52;;;;;17.40;102589.00;;;;2086021;28;20220;-51
2023/02/12 03:09:01;;;;;;;9.93;9.02;;;;;17.40;102589.00;;;;2079087;28;20219;-54
2023/02/12 03:10:23;;;;;;;9.68;8.77;;;;;17.30;102576.00;;;;2078941;28;20219;-51
2023/02/12 03:11:27;;;;;;;9.38;8.55;;;;;17.40;102596.00;;;;2081010;28;20218;-51
2023/02/12 03:12:37;;;;;;;9.55;8.65;;;;;17.40;102596.00;;;;2087468;28;20211;-51
2023/02/12 03:13:48;;;;;;;10.13;9.18;;;;;17.40;102592.00;;;;2086424;28;20208;-51
2023/02/12 03:15:10;;;;;;;9.43;8.52;;;;;17.40;102596.00;;;;2070696;28;20658;-50
2023/02/12 03:16:14;;;;;;;9.80;8.90;;;;;17.40;102601.00;;;;2067117;28;20281;-50
2023/02/12 03:17:24;;;;;;;10.80;9.20;;;;;17.40;102608.00;;;;2070959;28;20306;-50
2023/02/12 03:18:27;;;;;;;9.57;8.68;;;;;17.40;102609.00;;;;2079222;28;20216;-51
2023/02/12 03:19:33;;;;;;;10.38;9.38;;;;;17.40;102596.00;;;;2078049;28;20269;-51
2023/02/12 03:20:37;;;;;;;8.82;8.02;;;;;17.40;102597.00;;;;2071572;28;20617;-50
2023/02/12 03:21:43;;;;;;;9.70;8.80;;;;;17.40;102590.00;;;;2071298;28;20224;-51
2023/02/12 03:22:47;;;;;;;10.02;9.10;;;;;17.40;102592.00;;;;2072357;28;20652;-51
2023/02/12 03:23:54;;;;;;;9.27;8.38;;;;;17.40;102598.00;;;;2078780;28;20227;-51
2023/02/12 03:24:57;;;;;;;10.93;9.82;;;;;17.40;102585.00;;;;2059577;28;20758;-52
2023/02/12 03:26:06;;;;;;;10.10;9.20;;;;;17.40;102597.00;;;;2062682;28;20487;-51
2023/02/12 03:27:32;;;;;;;10.32;9.40;;;;;17.40;102599.00;;;;2063936;28;20224;-52
2023/02/12 03:28:34;;;;;;;9.77;8.90;;;;;17.40;102601.00;;;;2075548;28;20292;-51
2023/02/12 03:29:34;;;;;;;10.05;9.02;;;;;17.40;102601.00;;;;2086324;28;20219;-51
2023/02/12 03:30:50;;;;;;;9.77;8.80;;;;;17.40;102594.00;;;;2077904;28;20216;-50
2023/02/12 03:32:18;;;;;;;9.70;8.77;;;;;17.40;102594.00;;;;2074246;28;20223;-50
2023/02/12 03:34:00;;;;;;;9.35;8.45;;;;;17.40;102600.00;;;;2086860;28;20683;-51
2023/02/12 03:35:13;;;;;;;9.60;8.70;;;;;17.40;102599.00;;;;2053396;28;20237;-51
2023/02/12 03:36:59;;;;;;;10.50;9.50;;;;;17.30;102597.00;;;;2087571;28;20683;-51
2023/02/12 03:38:07;;;;;;;9.32;8.40;;;;;17.40;102595.00;;;;2045251;28;20368;-52
2023/02/12 03:39:15;;;;;;;9.55;8.60;;;;;17.40;102593.00;;;;2043802;29;20426;-51
2023/02/12 03:40:36;;;;;;;10.10;9.18;;;;;17.30;102594.00;;;;2031462;29;20712;-51
2023/02/12 03:41:49;;;;;;;9.68;8.77;;;;;17.30;102594.00;;;;2042944;28;20618;-51
2023/02/12 03:43:04;;;;;;;9.15;8.35;;;;;17.40;102596.00;;;;2046414;29;20850;-51
2023/02/12 03:44:10;;;;;;;10.80;8.85;;;;;17.30;102600.00;;;;2083030;28;20218;-52
2023/02/12 03:45:26;;;;;;;9.23;8.32;;;;;17.40;102597.00;;;;2086964;28;20589;-51
2023/02/12 03:46:46;;;;;;;8.50;7.70;;;;;17.30;102593.00;;;;2080687;28;20225;-52
2023/02/12 03:47:52;;;;;;;8.63;7.82;;;;;17.30;102601.00;;;;2086702;28;20699;-52
2023/02/12 03:48:57;;;;;;;9.48;8.57;;;;;17.30;102588.00;;;;2086936;28;20218;-51
2023/02/12 03:50:05;;;;;;;10.60;9.60;;;;;17.30;102602.00;;;;2087360;28;20252;-51
2023/02/12 03:51:38;;;;;;;10.38;9.48;;;;;17.30;102605.00;;;;2085993;28;20237;-51
2023/02/12 03:52:39;;;;;;;10.63;9.63;;;;;17.30;102602.00;;;;2057351;28;20211;-51
2023/02/12 03:53:41;;;;;;;9.23;8.33;;;;;17.40;102606.00;;;;2076287;28;20636;-51
2023/02/12 03:54:41;;;;;;;10.43;9.38;;;;;17.40;102602.00;;;;2087043;28;20240;-51
2023/02/12 03:55:42;;;;;;;10.40;9.50;;;;;17.30;102604.00;;;;2087556;28;20272;-52
2023/02/12 03:56:51;;;;;;;9.20;8.30;;;;;17.30;102607.00;;;;2078628;28;20269;-51
2023/02/12 03:57:58;;;;;;;10.63;9.63;;;;;17.30;102602.00;;;;2071933;28;20249;-50
2023/02/12 03:58:58;;;;;;;9.32;8.43;;;;;17.40;102601.00;;;;2079830;28;20233;-51
2023/02/12 04:00:01;;;;;;;9.93;9.00;;;;;17.40;102611.00;;;;2086625;28;20235;-51
2023/02/12 04:01:01;;;;;;;10.35;9.30;;;;;17.30;102606.00;;;;2078531;28;20840;-50
2023/02/12 04:02:02;;;;;;;10.07;9.10;;;;;17.30;102608.00;;;;2078907;28;20215;-51
2023/02/12 04:03:02;;;;;;;9.33;8.43;;;;;17.30;102596.00;;;;2086708;28;20268;-50
2023/02/12 04:04:04;;;;;;;9.70;8.80;;;;;17.30;102603.00;;;;2086773;28;20346;-50
2023/02/12 04:05:05;;;;;;;10.82;9.82;;;;;17.30;102610.00;;;;2086588;28;20211;-51
2023/02/12 04:06:25;;;;;;;10.88;9.52;;;;;17.40;102607.00;;;;2087505;28;20207;-51
2023/02/12 04:07:25;;;;;;;10.65;9.55;;;;;17.30;102606.00;;;;2087093;28;20698;-50
2023/02/12 04:08:26;;;;;;;10.27;9.37;;;;;17.30;102606.00;;;;2077450;28;20404;-50
2023/02/12 04:09:26;;;;;;;10.07;9.17;;;;;17.30;102606.00;;;;2078455;28;20269;-51
2023/02/12 04:10:45;;;;;;;10.93;9.87;;;;;17.30;102613.00;;;;2086388;28;20356;-51
2023/02/12 04:12:00;;;;;;;10.20;9.20;;;;;17.30;102617.00;;;;2072378;28;20216;-50
2023/02/12 04:13:19;;;;;;;10.75;9.75;;;;;17.30;102619.00;;;;2081622;28;20222;-51
2023/02/12 04:14:38;;;;;;;10.70;8.90;;;;;17.30;102617.00;;;;2086819;28;20210;-50
2023/02/12 04:15:41;;;;;;;10.02;9.13;;;;;17.30;102616.00;;;;2086328;28;20209;-50
2023/02/12 04:17:12;;;;;;;10.30;9.30;;;;;17.30;102609.00;;;;2086589;28;20627;-51
2023/02/12 04:18:40;;;;;;;10.07;9.07;;;;;17.30;102612.00;;;;2085593;28;20227;-51
2023/02/12 04:20:03;;;;;;;9.80;8.90;;;;;17.30;102618.00;;;;2073181;28;20241;-51
2023/02/12 04:21:22;;;;;;;10.23;9.20;;;;;17.30;102622.00;;;;2071449;28;20584;-51
2023/02/12 04:22:44;;;;;;;9.35;8.35;;;;;17.30;102629.00;;;;2087167;28;20681;-51
2023/02/12 04:23:46;;;;;;;10.27;9.30;;;;;17.30;102624.00;;;;2086654;28;20294;-51
2023/02/12 04:24:52;;;;;;;10.25;9.25;;;;;17.30;102619.00;;;;2087163;28;20228;-51
2023/02/12 04:26:00;;;;;;;10.13;9.05;;;;;17.30;102595.00;;;;2087192;28;20210;-51
2023/02/12 04:27:42;;;;;;;9.02;8.20;;;;;17.30;102634.00;;;;2086589;28;20235;-51
2023/02/12 04:28:55;;;;;;;10.45;9.40;;;;;17.30;102630.00;;;;2085317;28;20208;-51
2023/02/12 04:30:01;;;;;;;10.52;9.48;;;;;17.30;102634.00;;;;2087008;28;20223;-52
2023/02/12 04:31:11;;;;;;;10.65;9.65;;;;;17.30;102633.00;;;;2087360;28;20291;-51
2023/02/12 04:32:19;;;;;;;10.63;9.63;;;;;17.30;102630.00;;;;2078198;28;20223;-51
2023/02/12 04:33:20;;;;;;;11.13;10.10;;;;;17.30;102631.00;;;;2072880;28;20287;-51
2023/02/12 04:34:34;;;;;;;9.43;8.53;;;;;17.30;102632.00;;;;2070441;28;20242;-51
2023/02/12 04:35:38;;;;;;;11.23;9.20;;;;;17.30;102632.00;;;;2073607;28;20462;-52
2023/02/12 04:36:51;;;;;;;10.07;9.07;;;;;17.30;102634.00;;;;2078595;28;20686;-51
2023/02/12 04:37:59;;;;;;;11.23;10.23;;;;;17.30;102641.00;;;;2085907;28;20314;-51
2023/02/12 04:39:02;;;;;;;9.95;8.95;;;;;17.30;102635.00;;;;2086502;28;20214;-51
2023/02/12 04:40:06;;;;;;;10.57;9.60;;;;;17.30;102618.00;;;;2070216;28;20685;-51
2023/02/12 04:41:07;;;;;;;10.57;9.57;;;;;17.30;102649.00;;;;2063014;28;20212;-51
2023/02/12 04:42:07;;;;;;;9.70;8.80;;;;;17.30;102635.00;;;;2070216;28;20325;-51
2023/02/12 04:43:07;;;;;;;10.10;9.10;;;;;17.30;102649.00;;;;2070163;28;20763;-50
2023/02/12 04:44:24;;;;;;;10.03;9.03;;;;;17.30;102650.00;;;;2078233;28;20221;-51
2023/02/12 04:45:28;;;;;;;10.32;9.43;;;;;17.30;102643.00;;;;2086964;28;20296;-52
2023/02/12 04:46:29;;;;;;;10.18;9.27;;;;;17.30;102650.00;;;;2086744;28;20202;-51
2023/02/12 04:47:29;;;;;;;10.50;9.50;;;;;17.30;102669.00;;;;2087015;28;20212;-51
2023/02/12 04:48:30;;;;;;;10.73;9.73;;;;;17.30;102656.00;;;;2086233;28;20216;-50
2023/02/12 04:49:30;;;;;;;9.70;8.80;;;;;17.30;102656.00;;;;2086923;28;20223;-51
2023/02/12 04:50:38;;;;;;;10.90;9.83;;;;;17.30;102663.00;;;;2086406;28;20215;-51
2023/02/12 04:51:38;;;;;;;11.13;10.02;;;;;17.30;102668.00;;;;2086253;28;20309;-51
2023/02/12 04:52:39;;;;;;;10.50;9.50;;;;;17.30;102657.00;;;;2087183;28;20221;-51
2023/02/12 04:53:39;;;;;;;9.63;8.73;;;;;17.30;102654.00;;;;2087033;28;20223;-50
2023/02/12 04:54:40;;;;;;;9.17;8.17;;;;;17.30;102655.00;;;;2087035;28;20245;-51
2023/02/12 04:55:40;;;;;;;9.80;8.83;;;;;17.30;102648.00;;;;2086825;28;20581;-51
2023/02/12 04:56:41;;;;;;;10.10;9.10;;;;;17.30;102658.00;;;;2086902;28;20654;-52
2023/02/12 04:57:41;;;;;;;9.50;8.60;;;;;17.30;102645.00;;;;2086745;28;20290;-51
2023/02/12 04:58:42;;;;;;;10.03;9.03;;;;;17.30;102649.00;;;;2085522;28;20222;-51
2023/02/12 04:59:42;;;;;;;10.27;9.27;;;;;17.30;102649.00;;;;2086226;28;20288;-51
2023/02/12 05:00:42;;;;;;;9.63;8.47;;;;;17.30;102652.00;;;;2087076;28;20260;-50
2023/02/12 05:01:44;;;;;;;9.30;8.40;;;;;17.30;102650.00;;;;2086630;28;20218;-51
2023/02/12 05:02:44;;;;;;;9.60;8.70;;;;;17.30;102652.00;;;;2086898;28;20212;-50
2023/02/12 05:03:44;;;;;;;10.37;9.47;;;;;17.30;102652.00;;;;2084868;28;20245;-50
2023/02/12 05:04:45;;;;;;;10.23;9.23;;;;;17.30;102652.00;;;;2086985;28;20214;-52
2023/02/12 05:05:45;;;;;;;10.37;9.37;;;;;17.30;102654.00;;;;2086074;28;20210;-51
2023/02/12 05:06:45;;;;;;;10.03;9.03;;;;;17.30;102657.00;;;;2086670;28;20240;-51
2023/02/12 05:07:46;;;;;;;10.83;9.73;;;;;17.30;102658.00;;;;2085424;28;20211;-56
2023/02/12 05:08:46;;;;;;;10.77;9.67;;;;;17.30;102655.00;;;;2086351;28;20208;-55
2023/02/12 05:09:46;;;;;;;10.40;9.40;;;;;17.30;102651.00;;;;2087014;28;20219;-52
2023/02/12 05:10:47;;;;;;;10.13;9.20;;;;;17.30;102653.00;;;;2086808;28;20330;-51
2023/02/12 05:11:47;;;;;;;10.17;9.17;;;;;17.30;102652.00;;;;2086990;28;20215;-51
2023/02/12 05:12:50;;;;;;;10.73;9.73;;;;;17.30;102659.00;;;;2086862;28;20217;-52
2023/02/12 05:13:51;;;;;;;9.88;8.98;;;;;17.30;102655.00;;;;2087027;28;20723;-50
2023/02/12 05:14:51;;;;;;;10.50;9.50;;;;;17.30;102657.00;;;;2086611;28;20230;-51
2023/02/12 05:15:52;;;;;;;9.47;8.57;;;;;17.30;102652.00;;;;2087178;28;20257;-51
2023/02/12 05:16:52;;;;;;;9.77;8.87;;;;;17.30;102658.00;;;;2087088;28;20221;-51
2023/02/12 05:17:52;;;;;;;10.67;9.57;;;;;17.30;102657.00;;;;2086457;28;20259;-51
2023/02/12 05:18:53;;;;;;;9.73;8.83;;;;;17.30;102660.00;;;;2086371;28;20238;-51
2023/02/12 05:19:53;;;;;;;10.10;9.07;;;;;17.30;102655.00;;;;2086814;28;20295;-50
2023/02/12 05:20:55;;;;;;;9.20;8.33;;;;;17.30;102660.00;;;;2087110;28;20216;-51